Time;durP1;ratioP1;P1;durP2;ratioP2;P2;SDS_P1;SDS_P2;PMS_P1;PMS_P2;Temp;Humidity;BMP_temperature;BMP_pressure;BME280_temperature;BME280_humidity;BME280_pressure;Samples;Min_cycle;Max_cycle;Signal;HPM_P1;HPM_P2
2022/10/27 00:01:20;;;;;;;16.57;7.70;;;;;;;;;;4437950;32;20236;-88
2022/10/27 00:03:51;;;;;;;17.00;7.63;;;;;;;;;;4438872;32;20331;-88
2022/10/27 00:06:18;;;;;;;17.83;6.83;;;;;;;;;;4438008;32;20209;-88
2022/10/27 00:08:46;;;;;;;19.27;7.63;;;;;;;;;;4439435;32;20220;-88
2022/10/27 00:11:13;;;;;;;8.10;6.77;;;;;;;;;;4439072;32;20292;-88
2022/10/27 00:13:40;;;;;;;14.40;6.57;;;;;;;;;;4438546;32;20254;-86
2022/10/27 00:16:10;;;;;;;12.50;7.17;;;;;;;;;;4438863;32;20555;-88
2022/10/27 00:18:38;;;;;;;11.88;7.50;;;;;;;;;;4438975;32;20684;-89
2022/10/27 00:21:09;;;;;;;18.40;8.13;;;;;;;;;;4439087;32;20229;-89
2022/10/27 00:23:37;;;;;;;15.23;7.97;;;;;;;;;;4439208;32;20254;-88
2022/10/27 00:26:07;;;;;;;14.67;8.07;;;;;;;;;;4438097;32;20245;-88
2022/10/27 00:28:42;;;;;;;13.17;8.50;;;;;;;;;;4438219;32;20201;-88
2022/10/27 00:31:13;;;;;;;13.50;7.83;;;;;;;;;;4438901;32;20228;-88
2022/10/27 00:33:40;;;;;;;14.73;8.17;;;;;;;;;;4439069;32;20221;-89
2022/10/27 00:36:10;;;;;;;13.33;7.47;;;;;;;;;;4438067;32;20254;-88
2022/10/27 00:38:40;;;;;;;13.00;7.47;;;;;;;;;;4438389;32;20615;-88
2022/10/27 00:41:27;;;;;;;14.57;7.03;;;;;;;;;;4438786;32;20243;-88
2022/10/27 00:43:54;;;;;;;14.73;7.37;;;;;;;;;;4438980;32;20268;-88
2022/10/27 00:46:30;;;;;;;12.20;7.73;;;;;;;;;;4438346;32;20305;-89
2022/10/27 00:49:01;;;;;;;12.47;8.17;;;;;;;;;;4438813;32;20222;-88
2022/10/27 00:51:30;;;;;;;15.37;8.50;;;;;;;;;;4438706;32;20359;-88
2022/10/27 00:53:58;;;;;;;13.60;8.40;;;;;;;;;;4437788;32;20221;-88
2022/10/27 00:56:26;;;;;;;14.57;8.17;;;;;;;;;;4438440;32;20749;-88
2022/10/27 00:58:54;;;;;;;11.67;7.07;;;;;;;;;;4437109;32;20337;-88
2022/10/27 01:01:23;;;;;;;21.33;8.07;;;;;;;;;;4438852;32;20273;-89
2022/10/27 01:03:51;;;;;;;14.63;7.30;;;;;;;;;;4438353;32;20233;-88
2022/10/27 01:06:20;;;;;;;16.17;8.37;;;;;;;;;;4438048;32;20253;-88
2022/10/27 01:08:47;;;;;;;14.30;8.47;;;;;;;;;;4443346;32;20258;-88
2022/10/27 01:11:14;;;;;;;19.03;7.67;;;;;;;;;;4454428;32;20304;-90
2022/10/27 01:13:42;;;;;;;12.17;8.67;;;;;;;;;;4454484;32;20204;-90
2022/10/27 01:16:20;;;;;;;15.43;9.03;;;;;;;;;;4455466;32;20201;-87
2022/10/27 01:19:02;;;;;;;17.83;8.70;;;;;;;;;;4446841;32;20260;-88
2022/10/27 01:21:57;;;;;;;13.90;8.23;;;;;;;;;;4441646;32;20209;-89
2022/10/27 01:24:46;;;;;;;17.93;9.07;;;;;;;;;;4441284;32;20340;-88
2022/10/27 01:27:42;;;;;;;20.27;9.43;;;;;;;;;;4440582;32;20292;-88
2022/10/27 01:30:13;;;;;;;15.70;8.90;;;;;;;;;;4445987;32;20221;-88
2022/10/27 01:32:51;;;;;;;15.30;8.70;;;;;;;;;;4440500;32;20213;-88
2022/10/27 01:35:28;;;;;;;14.77;8.70;;;;;;;;;;4440168;32;20748;-88
2022/10/27 01:38:03;;;;;;;18.80;8.03;;;;;;;;;;4440081;32;20283;-88
2022/10/27 01:40:34;;;;;;;18.67;6.83;;;;;;;;;;4440233;32;20744;-88
2022/10/27 01:43:04;;;;;;;14.50;7.83;;;;;;;;;;4439462;32;20216;-88
2022/10/27 01:45:36;;;;;;;10.53;6.73;;;;;;;;;;4437941;32;20229;-88
2022/10/27 01:48:06;;;;;;;14.23;7.53;;;;;;;;;;4437474;32;20304;-88
2022/10/27 01:50:36;;;;;;;11.50;7.07;;;;;;;;;;4437748;32;20232;-88
2022/10/27 01:53:03;;;;;;;13.33;8.23;;;;;;;;;;4437517;32;20212;-88
2022/10/27 01:55:36;;;;;;;16.03;7.27;;;;;;;;;;4437385;32;20232;-88
2022/10/27 01:58:24;;;;;;;15.27;7.70;;;;;;;;;;4437977;32;20224;-89
2022/10/27 02:01:00;;;;;;;14.60;8.37;;;;;;;;;;4437706;32;20225;-88
2022/10/27 02:03:37;;;;;;;14.93;7.27;;;;;;;;;;4437894;32;20208;-88
2022/10/27 02:06:10;;;;;;;15.63;7.20;;;;;;;;;;4437606;32;20236;-88
2022/10/27 02:08:43;;;;;;;10.77;7.23;;;;;;;;;;4437295;32;20586;-88
2022/10/27 02:11:11;;;;;;;18.30;6.73;;;;;;;;;;4437500;32;20221;-88
2022/10/27 02:13:42;;;;;;;13.63;7.97;;;;;;;;;;4437829;32;20205;-88
2022/10/27 02:16:15;;;;;;;13.47;8.20;;;;;;;;;;4437256;32;20297;-88
2022/10/27 02:18:46;;;;;;;11.60;7.27;;;;;;;;;;4437691;32;20229;-88
2022/10/27 02:21:16;;;;;;;10.67;6.37;;;;;;;;;;4437260;32;20243;-88
2022/10/27 02:23:43;;;;;;;17.23;7.90;;;;;;;;;;4437711;32;20217;-88
2022/10/27 02:26:19;;;;;;;13.70;7.23;;;;;;;;;;4437371;32;20228;-88
2022/10/27 02:28:49;;;;;;;15.63;7.60;;;;;;;;;;4437915;32;20269;-88
2022/10/27 02:31:18;;;;;;;12.63;7.00;;;;;;;;;;4437779;32;20657;-88
2022/10/27 02:33:47;;;;;;;12.23;7.07;;;;;;;;;;4437611;32;20272;-88
2022/10/27 02:36:14;;;;;;;11.97;7.93;;;;;;;;;;4436864;32;20293;-88
2022/10/27 02:38:41;;;;;;;8.50;6.57;;;;;;;;;;4436974;32;20265;-88
2022/10/27 02:41:10;;;;;;;12.60;8.40;;;;;;;;;;4437026;32;20229;-88
2022/10/27 02:43:37;;;;;;;13.23;7.53;;;;;;;;;;4437502;32;20231;-88
2022/10/27 02:46:06;;;;;;;15.33;8.20;;;;;;;;;;4437142;32;20225;-88
2022/10/27 02:48:33;;;;;;;16.07;9.40;;;;;;;;;;4436932;32;20274;-88
2022/10/27 02:51:01;;;;;;;17.10;8.77;;;;;;;;;;4436933;32;20221;-88
2022/10/27 02:53:28;;;;;;;14.97;7.83;;;;;;;;;;4436991;32;20590;-88
2022/10/27 02:55:56;;;;;;;14.57;8.07;;;;;;;;;;4436805;32;20318;-88
2022/10/27 02:58:26;;;;;;;13.87;7.70;;;;;;;;;;4437141;32;20213;-88
2022/10/27 03:00:54;;;;;;;12.90;8.70;;;;;;;;;;4439838;32;20294;-88
2022/10/27 03:03:23;;;;;;;22.73;9.53;;;;;;;;;;4439917;32;20228;-88
2022/10/27 03:05:50;;;;;;;16.33;9.77;;;;;;;;;;4438964;32;20279;-88
2022/10/27 03:08:19;;;;;;;18.13;9.57;;;;;;;;;;4439689;32;20213;-88
2022/10/27 03:10:46;;;;;;;23.40;9.53;;;;;;;;;;4439462;32;20232;-88
2022/10/27 03:13:14;;;;;;;21.73;8.70;;;;;;;;;;4440315;32;20209;-88
2022/10/27 03:15:45;;;;;;;18.03;10.23;;;;;;;;;;4439697;32;20228;-88
2022/10/27 03:18:12;;;;;;;17.33;9.83;;;;;;;;;;4440052;32;20236;-87
2022/10/27 03:20:39;;;;;;;16.37;9.13;;;;;;;;;;4439992;32;20229;-88
2022/10/27 03:23:06;;;;;;;33.40;14.43;;;;;;;;;;4440027;32;20236;-88
2022/10/27 03:25:35;;;;;;;39.07;18.40;;;;;;;;;;4439947;32;20226;-88
2022/10/27 03:28:02;;;;;;;31.47;14.90;;;;;;;;;;4440180;32;20247;-88
2022/10/27 03:30:29;;;;;;;27.53;12.00;;;;;;;;;;4439792;32;20749;-88
2022/10/27 03:32:56;;;;;;;17.80;10.43;;;;;;;;;;4438938;32;20221;-88
2022/10/27 03:35:23;;;;;;;16.30;9.07;;;;;;;;;;4445459;32;20304;-88
2022/10/27 03:38:00;;;;;;;14.33;8.57;;;;;;;;;;4450339;32;20189;-89
2022/10/27 03:40:27;;;;;;;20.27;8.23;;;;;;;;;;4446864;32;20680;-88
2022/10/27 03:42:57;;;;;;;15.80;9.50;;;;;;;;;;4440606;32;20256;-88
2022/10/27 03:45:25;;;;;;;14.43;8.73;;;;;;;;;;4440684;32;20233;-88
2022/10/27 03:47:59;;;;;;;13.80;8.70;;;;;;;;;;4439018;32;20254;-88
2022/10/27 03:50:27;;;;;;;14.67;8.80;;;;;;;;;;4439585;32;20220;-88
2022/10/27 03:52:53;;;;;;;14.57;9.23;;;;;;;;;;4439481;32;20250;-88
2022/10/27 03:55:24;;;;;;;14.27;8.63;;;;;;;;;;4438409;32;20677;-88
2022/10/27 03:57:59;;;;;;;16.00;8.23;;;;;;;;;;4439635;32;20248;-87
2022/10/27 04:00:27;;;;;;;24.13;9.10;;;;;;;;;;4439170;32;20248;-88
2022/10/27 04:02:54;;;;;;;16.57;8.77;;;;;;;;;;4439520;32;20228;-88
2022/10/27 04:05:21;;;;;;;14.53;8.43;;;;;;;;;;4438919;32;20229;-88
2022/10/27 04:07:48;;;;;;;16.67;9.20;;;;;;;;;;4439356;32;20258;-88
2022/10/27 04:10:16;;;;;;;11.73;9.13;;;;;;;;;;4438519;32;20356;-88
2022/10/27 04:12:50;;;;;;;30.10;8.90;;;;;;;;;;4438792;32;20249;-88
2022/10/27 04:15:20;;;;;;;23.47;8.97;;;;;;;;;;4439197;32;20225;-88
2022/10/27 04:17:47;;;;;;;19.77;9.97;;;;;;;;;;4439170;32;20653;-90
2022/10/27 04:20:15;;;;;;;15.20;10.37;;;;;;;;;;4439093;32;20240;-88
2022/10/27 04:22:42;;;;;;;18.67;10.57;;;;;;;;;;4438885;32;20221;-88
2022/10/27 04:25:10;;;;;;;20.23;11.00;;;;;;;;;;4439518;32;20277;-88
2022/10/27 04:27:37;;;;;;;24.73;12.63;;;;;;;;;;4439310;32;20556;-88
2022/10/27 04:30:06;;;;;;;20.97;12.30;;;;;;;;;;4438768;32;20725;-88
2022/10/27 04:32:34;;;;;;;25.37;15.27;;;;;;;;;;4437825;32;20297;-88
2022/10/27 04:35:06;;;;;;;30.43;16.10;;;;;;;;;;4437371;32;20578;-88
2022/10/27 04:37:35;;;;;;;38.60;16.87;;;;;;;;;;4438982;32;20217;-88
2022/10/27 04:40:02;;;;;;;34.63;18.50;;;;;;;;;;4438418;32;20376;-88
2022/10/27 04:42:29;;;;;;;42.53;18.53;;;;;;;;;;4439830;32;20224;-89
2022/10/27 04:45:20;;;;;;;36.93;16.47;;;;;;;;;;4443885;32;20285;-87
2022/10/27 04:47:49;;;;;;;41.97;18.17;;;;;;;;;;4443727;32;20225;-87
2022/10/27 04:50:19;;;;;;;32.07;17.50;;;;;;;;;;4444001;32;20343;-88
2022/10/27 04:53:04;;;;;;;42.30;26.90;;;;;;;;;;4441914;32;20561;-89
2022/10/27 04:55:33;;;;;;;44.17;24.00;;;;;;;;;;4438587;32;20659;-89
2022/10/27 04:58:00;;;;;;;37.57;16.83;;;;;;;;;;4438130;32;20315;-88
2022/10/27 05:00:27;;;;;;;39.70;17.13;;;;;;;;;;4438444;32;20208;-88
2022/10/27 05:02:57;;;;;;;43.30;21.33;;;;;;;;;;4436942;32;20237;-89
2022/10/27 05:05:26;;;;;;;42.97;22.63;;;;;;;;;;4437653;32;20245;-88
2022/10/27 05:07:54;;;;;;;34.97;21.17;;;;;;;;;;4436439;32;20249;-88
2022/10/27 05:10:21;;;;;;;36.70;21.47;;;;;;;;;;4437212;32;20230;-88
2022/10/27 05:12:48;;;;;;;26.70;16.47;;;;;;;;;;4435918;32;20225;-88
2022/10/27 05:15:18;;;;;;;40.87;18.67;;;;;;;;;;4438466;32;20298;-87
2022/10/27 05:17:45;;;;;;;28.60;17.77;;;;;;;;;;4437962;32;20299;-87
2022/10/27 05:20:17;;;;;;;26.27;17.33;;;;;;;;;;4436745;32;20228;-88
2022/10/27 05:22:45;;;;;;;34.30;15.63;;;;;;;;;;4436265;32;20627;-88
2022/10/27 05:25:15;;;;;;;28.23;14.17;;;;;;;;;;4437055;32;20277;-89
2022/10/27 05:27:42;;;;;;;20.53;11.57;;;;;;;;;;4436734;32;20655;-93
2022/10/27 05:30:11;;;;;;;27.50;14.63;;;;;;;;;;4437690;32;20217;-87
2022/10/27 05:32:39;;;;;;;21.67;12.70;;;;;;;;;;4436996;32;20225;-87
2022/10/27 05:35:06;;;;;;;25.77;13.43;;;;;;;;;;4436358;32;20259;-87
2022/10/27 05:37:34;;;;;;;21.17;12.00;;;;;;;;;;4435881;32;20269;-87
2022/10/27 05:40:02;;;;;;;35.27;16.73;;;;;;;;;;4434553;32;20224;-86
2022/10/27 05:42:34;;;;;;;32.60;16.97;;;;;;;;;;4435505;32;20266;-90
2022/10/27 05:45:00;;;;;;;41.20;17.17;;;;;;;;;;4437644;32;20209;-87
2022/10/27 05:47:27;;;;;;;31.23;17.80;;;;;;;;;;4436569;32;20635;-88
2022/10/27 05:49:54;;;;;;;26.30;17.30;;;;;;;;;;4437750;32;20316;-86
2022/10/27 05:52:21;;;;;;;33.47;16.60;;;;;;;;;;4437109;32;20282;-88
2022/10/27 05:54:49;;;;;;;32.63;17.03;;;;;;;;;;4437788;32;20270;-86
2022/10/27 05:57:16;;;;;;;35.77;17.07;;;;;;;;;;4437201;32;20356;-86
2022/10/27 05:59:44;;;;;;;29.37;17.03;;;;;;;;;;4437694;32;20242;-87
2022/10/27 06:02:11;;;;;;;45.53;21.37;;;;;;;;;;4436380;32;20283;-87
2022/10/27 06:04:40;;;;;;;63.87;32.27;;;;;;;;;;4436854;32;20212;-87
2022/10/27 06:07:08;;;;;;;57.50;32.90;;;;;;;;;;4436500;32;20256;-86
2022/10/27 06:09:34;;;;;;;58.47;30.63;;;;;;;;;;4436200;32;20231;-87
2022/10/27 06:12:03;;;;;;;48.93;26.30;;;;;;;;;;4436309;32;20320;-87
2022/10/27 06:14:30;;;;;;;54.63;24.20;;;;;;;;;;4436910;32;20231;-87
2022/10/27 06:16:58;;;;;;;48.60;23.00;;;;;;;;;;4437647;32;20213;-89
2022/10/27 06:19:25;;;;;;;52.80;23.57;;;;;;;;;;4437656;32;20240;-87
2022/10/27 06:21:58;;;;;;;43.97;19.07;;;;;;;;;;4436928;32;20205;-86
2022/10/27 06:24:24;;;;;;;41.40;18.00;;;;;;;;;;4437221;32;20278;-87
2022/10/27 06:26:53;;;;;;;41.37;17.30;;;;;;;;;;4436499;32;20260;-87
2022/10/27 06:29:24;;;;;;;29.53;16.60;;;;;;;;;;4436810;32;20677;-87
2022/10/27 06:31:52;;;;;;;38.80;19.27;;;;;;;;;;4436465;32;20615;-88
2022/10/27 06:34:21;;;;;;;41.97;20.07;;;;;;;;;;4438038;32;20572;-88
2022/10/27 06:36:48;;;;;;;41.13;22.17;;;;;;;;;;4440568;32;20244;-88
2022/10/27 06:39:15;;;;;;;29.63;17.27;;;;;;;;;;4440435;32;20246;-88
2022/10/27 06:41:48;;;;;;;30.27;18.33;;;;;;;;;;4440616;32;20305;-88
2022/10/27 06:44:18;;;;;;;37.27;21.77;;;;;;;;;;4443474;32;20239;-87
2022/10/27 06:46:47;;;;;;;44.40;24.63;;;;;;;;;;4439520;32;20244;-88
2022/10/27 06:49:15;;;;;;;44.83;25.87;;;;;;;;;;4440896;32;20236;-87
2022/10/27 06:51:41;;;;;;;32.47;22.63;;;;;;;;;;4440975;32;20232;-87
2022/10/27 06:54:08;;;;;;;32.30;17.97;;;;;;;;;;4439734;32;20672;-87
2022/10/27 06:56:36;;;;;;;28.17;18.37;;;;;;;;;;4439781;32;20254;-87
2022/10/27 06:59:03;;;;;;;28.27;14.40;;;;;;;;;;4439877;32;20316;-87
2022/10/27 07:01:31;;;;;;;30.17;15.27;;;;;;;;;;4439897;32;20200;-87
2022/10/27 07:04:01;;;;;;;24.23;14.27;;;;;;;;;;4439774;32;20303;-89
2022/10/27 07:06:28;;;;;;;25.27;15.00;;;;;;;;;;4441007;32;20655;-89
2022/10/27 07:08:55;;;;;;;28.40;16.47;;;;;;;;;;4439372;32;20599;-88
2022/10/27 07:11:27;;;;;;;26.07;16.33;;;;;;;;;;4443669;32;20248;-88
2022/10/27 07:13:54;;;;;;;26.30;17.73;;;;;;;;;;4440704;32;20291;-89
2022/10/27 07:16:23;;;;;;;32.70;19.43;;;;;;;;;;4439246;32;20729;-89
2022/10/27 07:18:51;;;;;;;37.80;20.73;;;;;;;;;;4439054;32;20268;-87
2022/10/27 07:21:23;;;;;;;43.60;19.13;;;;;;;;;;4439181;32;20213;-87
2022/10/27 07:23:52;;;;;;;28.70;18.23;;;;;;;;;;4439146;32;20220;-87
2022/10/27 07:26:19;;;;;;;37.63;19.97;;;;;;;;;;4439415;32;20629;-87
2022/10/27 07:28:45;;;;;;;42.63;18.80;;;;;;;;;;4439426;32;20276;-88
2022/10/27 07:31:12;;;;;;;31.73;19.33;;;;;;;;;;4439349;32;20213;-87
2022/10/27 07:33:40;;;;;;;28.80;18.57;;;;;;;;;;4439259;32;20241;-87
2022/10/27 07:36:08;;;;;;;36.40;18.33;;;;;;;;;;4439003;32;20559;-87
2022/10/27 07:38:37;;;;;;;30.57;17.03;;;;;;;;;;4439367;32;20284;-88
2022/10/27 07:41:04;;;;;;;25.40;17.73;;;;;;;;;;4439835;32;20255;-87
2022/10/27 07:43:31;;;;;;;35.63;18.73;;;;;;;;;;4438937;32;20275;-87
2022/10/27 07:45:58;;;;;;;38.03;18.87;;;;;;;;;;4437553;32;20247;-87
2022/10/27 07:48:25;;;;;;;29.83;19.37;;;;;;;;;;4439150;32;20240;-88
2022/10/27 07:50:54;;;;;;;37.37;16.40;;;;;;;;;;4438310;32;20269;-88
2022/10/27 07:53:22;;;;;;;25.80;15.87;;;;;;;;;;4440230;32;20193;-88
2022/10/27 07:55:52;;;;;;;25.97;13.57;;;;;;;;;;4445718;32;20229;-88
2022/10/27 07:58:19;;;;;;;23.37;12.80;;;;;;;;;;4444831;32;20220;-88
2022/10/27 08:00:48;;;;;;;13.73;10.63;;;;;;;;;;4446733;32;20273;-88
2022/10/27 08:03:19;;;;;;;13.30;8.43;;;;;;;;;;4449382;32;20625;-89
2022/10/27 08:05:47;;;;;;;12.77;8.33;;;;;;;;;;4451373;32;20255;-89
2022/10/27 08:08:14;;;;;;;21.80;9.17;;;;;;;;;;4444817;32;20289;-88
2022/10/27 08:10:43;;;;;;;14.83;8.67;;;;;;;;;;4443265;32;20213;-86
2022/10/27 08:13:14;;;;;;;12.83;9.13;;;;;;;;;;4441669;32;20213;-85
2022/10/27 08:15:44;;;;;;;20.50;9.30;;;;;;;;;;4439471;32;20595;-88
2022/10/27 08:18:12;;;;;;;16.67;9.13;;;;;;;;;;4439337;32;20213;-88
2022/10/27 08:20:40;;;;;;;11.83;8.47;;;;;;;;;;4439321;32;20281;-88
2022/10/27 08:23:12;;;;;;;13.30;8.60;;;;;;;;;;4439231;32;20367;-88
2022/10/27 08:25:40;;;;;;;17.67;8.27;;;;;;;;;;4441241;32;20217;-86
2022/10/27 08:28:07;;;;;;;11.50;7.90;;;;;;;;;;4442275;32;20296;-87
2022/10/27 08:30:35;;;;;;;13.52;8.68;;;;;;;;;;4440216;32;20217;-88
2022/10/27 08:33:04;;;;;;;11.87;8.57;;;;;;;;;;4439157;32;20565;-88
2022/10/27 08:35:32;;;;;;;13.40;9.02;;;;;;;;;;4438675;32;20205;-88
2022/10/27 08:38:00;;;;;;;17.77;9.25;;;;;;;;;;4438397;32;20232;-87
2022/10/27 08:40:33;;;;;;;12.48;9.13;;;;;;;;;;4436847;32;20311;-86
2022/10/27 08:43:08;;;;;;;19.50;10.00;;;;;;;;;;4438722;32;20232;-87
2022/10/27 08:45:51;;;;;;;20.90;7.97;;;;;;;;;;4438858;32;20212;-89
2022/10/27 08:48:24;;;;;;;16.08;8.35;;;;;;;;;;4439850;32;20243;-88
2022/10/27 08:50:52;;;;;;;14.52;10.45;;;;;;;;;;4438997;32;20223;-89
2022/10/27 08:53:26;;;;;;;17.60;8.48;;;;;;;;;;4438180;32;20739;-89
2022/10/27 08:56:01;;;;;;;18.37;8.70;;;;;;;;;;4438642;32;20221;-86
2022/10/27 08:58:34;;;;;;;17.00;9.75;;;;;;;;;;4437040;32;20311;-86
2022/10/27 09:01:11;;;;;;;21.65;9.90;;;;;;;;;;4437583;32;20302;-87
2022/10/27 09:03:56;;;;;;;26.45;12.55;;;;;;;;;;4438966;32;20275;-89
2022/10/27 09:06:32;;;;;;;14.35;9.40;;;;;;;;;;4437953;32;20213;-86
2022/10/27 09:09:07;;;;;;;13.27;8.00;;;;;;;;;;4438423;32;20239;-88
2022/10/27 09:11:44;;;;;;;18.70;7.20;;;;;;;;;;4437896;32;20733;-89
2022/10/27 09:14:26;;;;;;;12.70;6.90;;;;;;;;;;4438558;32;20220;-88
2022/10/27 09:17:02;;;;;;;10.05;5.37;;;;;;;;;;4437857;32;20244;-88
2022/10/27 09:19:35;;;;;;;15.18;5.47;;;;;;;;;;4438189;32;20298;-89
2022/10/27 09:22:07;;;;;;;15.13;4.55;;;;;;;;;;4438118;32;20209;-88
2022/10/27 09:24:37;;;;;;;9.68;4.75;;;;;;;;;;4438671;32;20204;-88
2022/10/27 09:27:05;;;;;;;9.15;4.05;;;;;;;;;;4438949;32;20208;-88
2022/10/27 09:29:37;;;;;;;8.85;3.55;;;;;;;;;;4436728;32;20285;-88
2022/10/27 09:32:15;;;;;;;11.12;4.57;;;;;;;;;;4438599;32;20250;-88
2022/10/27 09:34:48;;;;;;;8.13;3.75;;;;;;;;;;4438181;32;20543;-89
2022/10/27 09:37:18;;;;;;;9.05;3.72;;;;;;;;;;4438154;32;20271;-88
2022/10/27 09:39:48;;;;;;;7.75;4.35;;;;;;;;;;4436165;32;20653;-88
2022/10/27 09:42:16;;;;;;;13.62;4.43;;;;;;;;;;4437809;32;20225;-87
2022/10/27 09:44:46;;;;;;;7.25;4.00;;;;;;;;;;4437881;32;20652;-90
2022/10/27 09:47:15;;;;;;;4.75;3.33;;;;;;;;;;4436386;32;20669;-89
2022/10/27 09:49:45;;;;;;;6.85;3.70;;;;;;;;;;4438240;32;20208;-88
2022/10/27 09:52:15;;;;;;;20.10;4.00;;;;;;;;;;4437359;32;20240;-88
2022/10/27 09:54:51;;;;;;;9.32;3.53;;;;;;;;;;4437872;32;20204;-88
2022/10/27 09:57:19;;;;;;;8.50;3.08;;;;;;;;;;4437788;32;20204;-88
2022/10/27 10:00:01;;;;;;;6.82;3.83;;;;;;;;;;4435911;32;20224;-89
2022/10/27 10:02:32;;;;;;;10.90;3.75;;;;;;;;;;4439885;32;20205;-89
2022/10/27 10:05:00;;;;;;;5.03;2.87;;;;;;;;;;4437969;32;20287;-89
2022/10/27 10:07:42;;;;;;;14.40;3.35;;;;;;;;;;4437143;32;20204;-89
2022/10/27 10:10:22;;;;;;;8.45;2.92;;;;;;;;;;4436601;32;20291;-88
2022/10/27 10:13:08;;;;;;;7.53;3.00;;;;;;;;;;4437596;32;20584;-89
2022/10/27 10:15:43;;;;;;;4.12;2.10;;;;;;;;;;4437298;32;20216;-89
2022/10/27 10:18:34;;;;;;;7.20;2.78;;;;;;;;;;4437192;32;20208;-89
2022/10/27 10:21:03;;;;;;;10.20;3.53;;;;;;;;;;4437439;32;20244;-92
2022/10/27 10:23:36;;;;;;;4.43;2.62;;;;;;;;;;4436640;32;20240;-90
2022/10/27 10:26:15;;;;;;;4.45;2.67;;;;;;;;;;4437019;32;20242;-90
2022/10/27 10:28:44;;;;;;;8.57;2.45;;;;;;;;;;4438052;32;20233;-89
2022/10/27 10:31:16;;;;;;;9.20;2.37;;;;;;;;;;4437098;32;20248;-91
2022/10/27 10:33:47;;;;;;;5.32;2.62;;;;;;;;;;4438250;32;20233;-89
2022/10/27 10:36:25;;;;;;;4.75;2.55;;;;;;;;;;4438719;32;20266;-88
2022/10/27 10:38:54;;;;;;;4.18;2.72;;;;;;;;;;4436942;32;20257;-89
2022/10/27 10:41:24;;;;;;;4.30;2.40;;;;;;;;;;4436648;32;20241;-88
2022/10/27 10:44:12;;;;;;;6.40;2.22;;;;;;;;;;4437238;32;20253;-89
2022/10/27 10:46:40;;;;;;;4.18;2.33;;;;;;;;;;4437161;32;20595;-89
2022/10/27 10:49:30;;;;;;;8.95;2.60;;;;;;;;;;4438549;32;20232;-89
2022/10/27 10:52:00;;;;;;;3.65;2.37;;;;;;;;;;4437357;32;20256;-88
2022/10/27 10:54:31;;;;;;;4.68;1.87;;;;;;;;;;4436645;32;20294;-89
2022/10/27 10:56:58;;;;;;;3.95;2.30;;;;;;;;;;4438176;32;20240;-89
2022/10/27 10:59:28;;;;;;;9.90;2.60;;;;;;;;;;4437533;32;20270;-90
2022/10/27 11:02:05;;;;;;;4.65;2.50;;;;;;;;;;4438375;32;20661;-90
2022/10/27 11:04:41;;;;;;;5.45;2.17;;;;;;;;;;4439534;32;20257;-89
2022/10/27 11:07:19;;;;;;;3.12;2.08;;;;;;;;;;4439821;32;20527;-89
2022/10/27 11:09:54;;;;;;;10.50;2.47;;;;;;;;;;4439799;32;20212;-90
2022/10/27 11:12:28;;;;;;;4.22;2.30;;;;;;;;;;4436344;32;20292;-89
2022/10/27 11:15:01;;;;;;;6.68;2.17;;;;;;;;;;4438938;32;20220;-88
2022/10/27 11:17:44;;;;;;;5.45;2.08;;;;;;;;;;4437261;32;20233;-86
2022/10/27 11:20:30;;;;;;;6.90;2.28;;;;;;;;;;4437808;32;20296;-87
2022/10/27 11:23:02;;;;;;;4.35;2.30;;;;;;;;;;4440806;32;20223;-87
2022/10/27 11:25:32;;;;;;;9.98;2.83;;;;;;;;;;4440225;32;20220;-88
2022/10/27 11:28:10;;;;;;;4.78;2.35;;;;;;;;;;4440455;32;20209;-87
2022/10/27 11:30:42;;;;;;;7.62;3.22;;;;;;;;;;4440034;32;20650;-88
2022/10/27 11:33:17;;;;;;;4.78;1.98;;;;;;;;;;4440888;32;20209;-88
2022/10/27 11:35:54;;;;;;;5.43;1.98;;;;;;;;;;4439277;32;20233;-88
2022/10/27 11:38:39;;;;;;;7.10;2.78;;;;;;;;;;4441260;32;20352;-91
2022/10/27 11:41:10;;;;;;;3.90;1.83;;;;;;;;;;4440383;32;20217;-88
2022/10/27 11:43:46;;;;;;;2.67;1.83;;;;;;;;;;4441329;32;20241;-87
2022/10/27 11:46:17;;;;;;;2.03;1.70;;;;;;;;;;4440856;32;20241;-88
2022/10/27 11:49:02;;;;;;;3.55;1.45;;;;;;;;;;4440902;32;20269;-88
2022/10/27 11:51:53;;;;;;;5.57;2.20;;;;;;;;;;4441015;32;20200;-88
2022/10/27 11:54:20;;;;;;;6.75;2.17;;;;;;;;;;4440101;32;20277;-87
2022/10/27 11:57:07;;;;;;;3.62;1.87;;;;;;;;;;4438758;32;20224;-87
2022/10/27 11:59:45;;;;;;;3.67;1.85;;;;;;;;;;4436759;32;20304;-89
2022/10/27 12:02:39;;;;;;;4.70;1.92;;;;;;;;;;4439757;32;20646;-86
2022/10/27 12:05:09;;;;;;;5.80;2.30;;;;;;;;;;4439414;32;20280;-89
2022/10/27 12:08:05;;;;;;;4.57;2.70;;;;;;;;;;4440083;32;20271;-89
2022/10/27 12:10:37;;;;;;;4.00;2.22;;;;;;;;;;4439191;32;20292;-86
2022/10/27 12:13:15;;;;;;;5.05;2.20;;;;;;;;;;4439821;32;20618;-89
2022/10/27 12:15:47;;;;;;;5.75;1.85;;;;;;;;;;4442041;32;20291;-87
2022/10/27 12:18:21;;;;;;;4.00;2.10;;;;;;;;;;4446223;32;20208;-90
2022/10/27 12:20:54;;;;;;;6.55;2.10;;;;;;;;;;4443059;32;20293;-89
2022/10/27 12:23:28;;;;;;;5.20;2.72;;;;;;;;;;4441156;32;20213;-88
2022/10/27 12:26:01;;;;;;;5.43;2.45;;;;;;;;;;4439626;32;20222;-88
2022/10/27 12:28:28;;;;;;;3.50;1.70;;;;;;;;;;4438864;32;20559;-88
2022/10/27 12:31:02;;;;;;;9.07;1.90;;;;;;;;;;4438110;32;20205;-87
2022/10/27 12:33:32;;;;;;;4.20;1.92;;;;;;;;;;4438828;32;20238;-88
2022/10/27 12:36:07;;;;;;;2.00;1.48;;;;;;;;;;4438020;32;20205;-88
2022/10/27 12:38:46;;;;;;;2.90;1.90;;;;;;;;;;4438962;32;20246;-87
2022/10/27 12:41:20;;;;;;;3.80;1.85;;;;;;;;;;4439036;32;20265;-88
2022/10/27 12:43:56;;;;;;;5.68;1.85;;;;;;;;;;4438581;32;20691;-87
2022/10/27 12:46:45;;;;;;;2.47;1.50;;;;;;;;;;4438453;32;20754;-88
2022/10/27 12:49:25;;;;;;;8.75;1.55;;;;;;;;;;4437758;32;20345;-87
2022/10/27 12:52:04;;;;;;;3.28;2.00;;;;;;;;;;4438372;32;20280;-87
2022/10/27 12:54:52;;;;;;;3.33;2.00;;;;;;;;;;4438643;32;20709;-86
2022/10/27 12:57:33;;;;;;;2.80;1.73;;;;;;;;;;4438261;32;20262;-87
2022/10/27 13:00:05;;;;;;;5.60;1.85;;;;;;;;;;4437805;32;20229;-88
2022/10/27 13:02:41;;;;;;;2.67;1.48;;;;;;;;;;4438124;32;20240;-88
2022/10/27 13:05:29;;;;;;;10.57;2.92;;;;;;;;;;4438900;32;20249;-87
2022/10/27 13:08:21;;;;;;;6.12;1.67;;;;;;;;;;4438698;32;20201;-88
2022/10/27 13:11:14;;;;;;;4.03;1.83;;;;;;;;;;4428037;32;20236;-88
2022/10/27 13:14:07;;;;;;;4.32;1.70;;;;;;;;;;4438612;32;20210;-87
2022/10/27 13:16:46;;;;;;;2.95;1.70;;;;;;;;;;4437990;32;20224;-88
2022/10/27 13:19:26;;;;;;;1.52;1.15;;;;;;;;;;4437887;32;20216;-87
2022/10/27 13:22:01;;;;;;;7.57;5.15;;;;;;;;;;4437658;32;20403;-87
2022/10/27 13:24:37;;;;;;;4.78;1.40;;;;;;;;;;4438113;32;20272;-87
2022/10/27 13:27:15;;;;;;;7.90;1.75;;;;;;;;;;4437708;32;20235;-87
2022/10/27 13:29:46;;;;;;;7.15;1.90;;;;;;;;;;4437994;32;20276;-87
2022/10/27 13:32:38;;;;;;;5.70;1.80;;;;;;;;;;4437999;32;20225;-87
2022/10/27 13:35:34;;;;;;;12.23;1.80;;;;;;;;;;4437875;32;20213;-87
2022/10/27 13:38:24;;;;;;;5.15;1.90;;;;;;;;;;4438025;32;20643;-88
2022/10/27 13:40:54;;;;;;;11.93;2.10;;;;;;;;;;4437454;32;20233;-88
2022/10/27 13:43:45;;;;;;;9.60;2.20;;;;;;;;;;4437255;32;20201;-88
2022/10/27 13:46:12;;;;;;;3.25;1.80;;;;;;;;;;4428624;32;20255;-88
2022/10/27 13:48:49;;;;;;;2.53;1.90;;;;;;;;;;4437752;32;20240;-88
2022/10/27 13:51:43;;;;;;;2.72;1.50;;;;;;;;;;4437678;32;20220;-88
2022/10/27 13:54:53;;;;;;;6.10;2.28;;;;;;;;;;4437840;32;20229;-88
2022/10/27 13:57:58;;;;;;;8.20;2.47;;;;;;;;;;4388138;32;20228;-87
2022/10/27 14:00:51;;;;;;;6.68;1.73;;;;;;;;;;4418785;32;20246;-90
2022/10/27 14:03:34;;;;;;;10.13;2.40;;;;;;;;;;4437728;32;20293;-87
2022/10/27 14:06:02;;;;;;;5.22;1.73;;;;;;;;;;4436527;32;20232;-88
2022/10/27 14:08:32;;;;;;;7.15;1.77;;;;;;;;;;4437366;32;20226;-87
2022/10/27 14:11:02;;;;;;;5.85;1.87;;;;;;;;;;4437543;32;20217;-87
2022/10/27 14:13:40;;;;;;;2.97;1.83;;;;;;;;;;4437367;32;20254;-87
2022/10/27 14:16:18;;;;;;;4.95;2.15;;;;;;;;;;4437588;32;20289;-87
2022/10/27 14:18:45;;;;;;;2.53;1.50;;;;;;;;;;4436611;32;20240;-87
2022/10/27 14:21:22;;;;;;;2.67;1.75;;;;;;;;;;4446306;32;20225;-87
2022/10/27 14:23:50;;;;;;;4.72;2.67;;;;;;;;;;4454134;32;20252;-89
2022/10/27 14:26:29;;;;;;;6.35;2.15;;;;;;;;;;4453548;32;20161;-86
2022/10/27 14:28:55;;;;;;;5.87;2.30;;;;;;;;;;4447221;32;20228;-87
2022/10/27 14:31:24;;;;;;;6.25;1.62;;;;;;;;;;4440344;32;20262;-88
2022/10/27 14:33:51;;;;;;;3.15;1.60;;;;;;;;;;4439327;32;20286;-87
2022/10/27 14:36:20;;;;;;;5.40;1.55;;;;;;;;;;4438650;32;20209;-87
2022/10/27 14:38:50;;;;;;;7.00;2.30;;;;;;;;;;4437861;32;20228;-87
2022/10/27 14:41:21;;;;;;;11.48;2.53;;;;;;;;;;4435971;32;20570;-87
2022/10/27 14:43:51;;;;;;;11.27;2.17;;;;;;;;;;4437309;32;20258;-87
2022/10/27 14:46:33;;;;;;;9.93;2.40;;;;;;;;;;4437519;32;20201;-86
2022/10/27 14:49:03;;;;;;;10.20;1.52;;;;;;;;;;4437239;32;20235;-86
2022/10/27 14:51:34;;;;;;;6.93;1.85;;;;;;;;;;4437653;32;20217;-87
2022/10/27 14:54:01;;;;;;;9.50;2.95;;;;;;;;;;4435899;32;20232;-87
2022/10/27 14:56:31;;;;;;;5.65;2.40;;;;;;;;;;4439639;32;20246;-87
2022/10/27 14:59:03;;;;;;;4.93;2.40;;;;;;;;;;4440238;32;20270;-87
2022/10/27 15:01:34;;;;;;;4.68;1.73;;;;;;;;;;4440130;32;20649;-87